createdAt,value
2019-05-15T00:00:08.889Z,1021.52
2019-05-15T00:01:08.762Z,1021.53
2019-05-15T00:02:10.864Z,1021.55
2019-05-15T00:03:08.541Z,1021.51
2019-05-15T00:04:09.322Z,1021.52
2019-05-15T00:05:09.011Z,1021.54
2019-05-15T00:06:08.638Z,1021.53
2019-05-15T00:07:08.937Z,1021.56
2019-05-15T00:08:09.292Z,1021.58
2019-05-15T00:09:08.153Z,1021.55
2019-05-15T00:10:08.748Z,1021.53
2019-05-15T00:11:08.338Z,1021.57
2019-05-15T00:12:08.513Z,1021.52
2019-05-15T00:13:09.262Z,1021.52
2019-05-15T00:14:08.657Z,1021.51
2019-05-15T00:15:09.156Z,1021.53
2019-05-15T00:16:08.439Z,1021.48
2019-05-15T00:17:08.254Z,1021.51
2019-05-15T00:18:08.818Z,1021.51
2019-05-15T00:19:08.683Z,1021.47
2019-05-15T00:20:09.631Z,1021.45
2019-05-15T00:21:09.274Z,1021.47
2019-05-15T00:22:08.635Z,1021.47
2019-05-15T00:23:08.523Z,1021.47
2019-05-15T00:24:12.724Z,1021.47
2019-05-15T00:25:09.301Z,1021.48
2019-05-15T00:26:09.198Z,1021.47
2019-05-15T00:27:08.208Z,1021.49
2019-05-15T00:28:09.561Z,1021.48
2019-05-15T00:29:12.781Z,1021.44
2019-05-15T00:30:08.645Z,1021.52
2019-05-15T00:31:09.115Z,1021.51
2019-05-15T00:32:09.139Z,1021.44
2019-05-15T00:33:08.979Z,1021.46
2019-05-15T00:34:12.525Z,1021.46
2019-05-15T00:35:09.093Z,1021.42
2019-05-15T00:36:08.601Z,1021.41
2019-05-15T00:37:09.016Z,1021.42
2019-05-15T00:38:09.047Z,1021.37
2019-05-15T00:39:08.507Z,1021.41
2019-05-15T00:40:08.883Z,1021.32
2019-05-15T00:41:09.161Z,1021.32
2019-05-15T00:42:08.252Z,1021.34
2019-05-15T00:43:08.842Z,1021.33
2019-05-15T00:44:09.051Z,1021.30
2019-05-15T00:45:09.125Z,1021.25
2019-05-15T00:46:08.955Z,1021.28
2019-05-15T00:47:10.374Z,1021.25
2019-05-15T00:48:08.660Z,1021.25
2019-05-15T00:49:08.696Z,1021.22
2019-05-15T00:50:08.716Z,1021.23
2019-05-15T00:51:08.439Z,1021.22
2019-05-15T00:52:11.797Z,1021.23
2019-05-15T00:53:08.632Z,1021.18
2019-05-15T00:54:08.411Z,1021.23
2019-05-15T00:55:08.630Z,1021.23
2019-05-15T00:56:08.660Z,1021.18
2019-05-15T00:57:08.495Z,1021.17
2019-05-15T00:58:08.481Z,1021.18
2019-05-15T00:59:08.389Z,1021.19
2019-05-15T01:00:08.173Z,1021.17
2019-05-15T01:01:08.218Z,1021.14
2019-05-15T01:02:08.520Z,1021.15
2019-05-15T01:03:08.559Z,1021.12
2019-05-15T01:04:08.094Z,1021.10
2019-05-15T01:05:08.117Z,1021.10
2019-05-15T01:06:08.151Z,1021.11
2019-05-15T01:07:08.308Z,1021.12
2019-05-15T01:08:08.063Z,1021.08
2019-05-15T01:09:08.217Z,1021.07
2019-05-15T01:10:05.995Z,1021.08
2019-05-15T01:11:06.160Z,1021.04
2019-05-15T01:12:05.944Z,1021.07
2019-05-15T01:13:08.333Z,1021.06
2019-05-15T01:14:05.886Z,1021.09
2019-05-15T01:15:05.961Z,1021.09
2019-05-15T01:16:05.819Z,1021.09
2019-05-15T01:17:05.977Z,1021.08
2019-05-15T01:18:05.750Z,1021.10
2019-05-15T01:19:05.894Z,1021.07
2019-05-15T01:20:05.715Z,1021.04
2019-05-15T01:21:08.189Z,1021.07
2019-05-15T01:22:05.645Z,1021.08
2019-05-15T01:23:05.837Z,1021.05
2019-05-15T01:24:05.583Z,1021.05
2019-05-15T01:25:05.736Z,1021.07
2019-05-15T01:26:05.547Z,1021.06
2019-05-15T01:27:05.656Z,1021.09
2019-05-15T01:28:05.477Z,1021.07
2019-05-15T01:29:05.566Z,1021.08
2019-05-15T01:30:05.451Z,1021.12
2019-05-15T01:31:05.600Z,1021.10
2019-05-15T01:32:05.363Z,1021.10
2019-05-15T01:33:05.506Z,1021.05
2019-05-15T01:34:05.307Z,1021.09
2019-05-15T01:35:05.417Z,1021.10
2019-05-15T01:36:05.254Z,1021.09
2019-05-15T01:37:05.431Z,1021.07
2019-05-15T01:38:05.186Z,1021.11
2019-05-15T01:39:05.327Z,1021.09
2019-05-15T01:40:05.123Z,1021.04
2019-05-15T01:41:05.251Z,1021.07
2019-05-15T01:42:05.104Z,1021.04
2019-05-15T01:43:05.247Z,1021.08
2019-05-15T01:44:05.017Z,1021.06
2019-05-15T01:45:05.178Z,1021.08
2019-05-15T01:46:04.970Z,1021.05
2019-05-15T01:47:05.103Z,1021.05
2019-05-15T01:48:04.895Z,1021.09
2019-05-15T01:49:04.981Z,1021.04
2019-05-15T01:50:04.820Z,1021.09
2019-05-15T01:51:05.021Z,1021.06
2019-05-15T01:52:04.800Z,1021.08
2019-05-15T01:53:04.841Z,1021.06
2019-05-15T01:54:04.716Z,1021.03
2019-05-15T01:55:04.732Z,1021.03
2019-05-15T01:56:04.677Z,1021.04
2019-05-15T01:57:04.750Z,1021.03
2019-05-15T01:58:04.635Z,1021.05
2019-05-15T01:59:04.645Z,1021.06
2019-05-15T02:00:04.542Z,1021.04
2019-05-15T02:01:04.690Z,1021.03
2019-05-15T02:02:04.530Z,1021.01
2019-05-15T02:03:04.688Z,1021.00
2019-05-15T02:04:04.422Z,1021.05
2019-05-15T02:05:04.597Z,1021.00
2019-05-15T02:06:04.366Z,1021.01
2019-05-15T02:07:04.427Z,1021.01
2019-05-15T02:08:04.353Z,1020.99
2019-05-15T02:09:04.405Z,1020.97
2019-05-15T02:10:04.255Z,1020.96
2019-05-15T02:11:04.335Z,1020.98
2019-05-15T02:12:04.188Z,1021.02
2019-05-15T02:13:04.226Z,1020.99
2019-05-15T02:14:04.138Z,1020.99
2019-05-15T02:15:04.148Z,1021.02
2019-05-15T02:16:04.069Z,1020.96
2019-05-15T02:17:04.152Z,1021.01
2019-05-15T02:18:04.006Z,1021.01
2019-05-15T02:19:04.065Z,1021.02
2019-05-15T02:20:03.982Z,1021.00
2019-05-15T02:21:06.622Z,1021.02
2019-05-15T02:22:03.888Z,1021.06
2019-05-15T02:23:04.015Z,1021.04
2019-05-15T02:24:03.842Z,1021.01
2019-05-15T02:25:03.890Z,1020.99
2019-05-15T02:26:03.774Z,1021.03
2019-05-15T02:27:03.893Z,1021.03
2019-05-15T02:28:03.728Z,1021.02
2019-05-15T02:29:03.830Z,1021.10
2019-05-15T02:30:20.976Z,1021.05
2019-05-15T02:31:03.714Z,1021.08
2019-05-15T02:32:03.606Z,1021.08
2019-05-15T02:33:03.753Z,1021.10
2019-05-15T02:34:03.581Z,1021.04
2019-05-15T02:35:03.552Z,1021.06
2019-05-15T02:36:03.493Z,1021.09
2019-05-15T02:37:03.466Z,1021.05
2019-05-15T02:38:03.446Z,1021.04
2019-05-15T02:39:03.413Z,1021.06
2019-05-15T02:40:03.492Z,1021.08
2019-05-15T02:41:03.352Z,1021.12
2019-05-15T02:42:03.323Z,1021.04
2019-05-15T02:43:03.408Z,1021.05
2019-05-15T02:44:03.306Z,1021.06
2019-05-15T02:45:03.360Z,1021.10
2019-05-15T02:46:03.222Z,1021.10
2019-05-15T02:47:03.177Z,1021.06
2019-05-15T02:48:03.152Z,1021.11
2019-05-15T02:49:03.116Z,1021.09
2019-05-15T02:50:03.100Z,1021.10
2019-05-15T02:51:03.078Z,1021.07
2019-05-15T02:52:03.034Z,1021.09
2019-05-15T02:53:02.997Z,1021.06
2019-05-15T02:54:02.974Z,1021.10
2019-05-15T02:55:02.924Z,1021.07
2019-05-15T02:56:02.905Z,1021.04
2019-05-15T02:57:02.859Z,1021.10
2019-05-15T02:58:02.836Z,1021.06
2019-05-15T02:59:04.796Z,1021.08
2019-05-15T03:00:03.892Z,1021.05
2019-05-15T03:01:02.751Z,1021.04
2019-05-15T03:02:02.765Z,1021.03
2019-05-15T03:03:02.702Z,1021.05
2019-05-15T03:04:09.442Z,1021.06
2019-05-15T03:05:02.651Z,1021.07
2019-05-15T03:06:10.399Z,1021.03
2019-05-15T03:07:02.590Z,1021.05
2019-05-15T03:08:29.710Z,1021.09
2019-05-15T03:09:02.515Z,1021.02
2019-05-15T03:10:09.668Z,1021.02
2019-05-15T03:11:02.473Z,1021.03
2019-05-15T03:12:04.475Z,1021.03
2019-05-15T03:13:02.422Z,1021.06
2019-05-15T03:14:04.525Z,1021.02
2019-05-15T03:15:02.342Z,1021.05
2019-05-15T03:16:10.540Z,1021.04
2019-05-15T03:17:02.367Z,1021.05
2019-05-15T03:18:03.319Z,1021.05
2019-05-15T03:19:02.227Z,1021.00
2019-05-15T03:20:10.369Z,1020.99
2019-05-15T03:21:02.163Z,1021.01
2019-05-15T03:22:02.235Z,1021.03
2019-05-15T03:23:02.134Z,1021.04
2019-05-15T03:24:02.127Z,1020.97
2019-05-15T03:25:02.050Z,1021.03
2019-05-15T03:26:10.826Z,1021.03
2019-05-15T03:27:01.997Z,1021.06
2019-05-15T03:28:02.058Z,1021.05
2019-05-15T03:29:01.911Z,1021.05
2019-05-15T03:30:04.002Z,1021.05
2019-05-15T03:31:22.336Z,1021.03
2019-05-15T03:32:17.579Z,1021.05
2019-05-15T03:33:09.535Z,1021.06
2019-05-15T03:34:03.527Z,1021.09
2019-05-15T03:35:04.847Z,1021.07
2019-05-15T03:36:03.299Z,1021.06
2019-05-15T03:37:04.175Z,1021.08
2019-05-15T03:38:01.653Z,1021.07
2019-05-15T03:39:02.716Z,1021.09
2019-05-15T03:40:01.607Z,1021.07
2019-05-15T03:41:03.670Z,1021.11
2019-05-15T03:42:01.535Z,1021.11
2019-05-15T03:43:03.616Z,1021.09
2019-05-15T03:44:01.494Z,1021.10
2019-05-15T03:45:01.586Z,1021.11
2019-05-15T03:46:01.982Z,1021.07
2019-05-15T03:47:01.451Z,1021.10
2019-05-15T03:48:01.396Z,1021.12
2019-05-15T03:49:02.420Z,1021.10
2019-05-15T03:50:01.331Z,1021.10
2019-05-15T03:51:03.313Z,1021.10
2019-05-15T03:52:01.238Z,1021.09
2019-05-15T03:53:02.346Z,1021.10
2019-05-15T03:54:01.185Z,1021.06
2019-05-15T03:55:03.270Z,1021.08
2019-05-15T03:56:01.136Z,1021.06
2019-05-15T03:57:03.146Z,1021.06
2019-05-15T03:58:01.061Z,1021.03
2019-05-15T03:59:02.170Z,1021.04
2019-05-15T04:00:01.009Z,1021.09
2019-05-15T04:01:02.078Z,1021.03
2019-05-15T04:02:00.981Z,1021.01
2019-05-15T04:03:03.013Z,1021.01
2019-05-15T04:04:00.919Z,1021.01
2019-05-15T04:05:11.762Z,1021.04
2019-05-15T04:06:00.875Z,1021.03
2019-05-15T04:07:09.304Z,1021.05
2019-05-15T04:08:00.773Z,1021.01
2019-05-15T04:09:00.878Z,1021.03
2019-05-15T04:10:00.788Z,1021.00
2019-05-15T04:11:21.822Z,1021.04
2019-05-15T04:12:00.641Z,1021.06
2019-05-15T04:13:00.706Z,1021.03
2019-05-15T04:14:00.596Z,1021.07
2019-05-15T04:15:01.674Z,1021.04
2019-05-15T04:16:00.660Z,1021.01
2019-05-15T04:17:00.527Z,1021.04
2019-05-15T04:18:00.686Z,1021.02
2019-05-15T04:19:02.482Z,1021.05
2019-05-15T04:20:00.416Z,1021.03
2019-05-15T04:21:00.532Z,1021.03
2019-05-15T04:22:00.391Z,1021.03
2019-05-15T04:23:01.496Z,1021.01
2019-05-15T04:24:00.474Z,1021.02
2019-05-15T04:25:09.730Z,1021.02
2019-05-15T04:26:00.534Z,1021.00
2019-05-15T04:27:00.573Z,1021.02
2019-05-15T04:28:00.183Z,1021.02
2019-05-15T04:29:00.308Z,1021.05
2019-05-15T04:30:00.112Z,1021.01
2019-05-15T04:31:00.077Z,1021.05
2019-05-15T04:32:05.380Z,1020.99
2019-05-15T04:33:00.015Z,1021.01
2019-05-15T04:34:00.018Z,1021.03
2019-05-15T04:34:59.965Z,1021.05
2019-05-15T04:35:59.952Z,1021.04
2019-05-15T04:36:59.937Z,1021.06
2019-05-15T04:37:59.944Z,1021.04
2019-05-15T04:38:59.841Z,1021.11
2019-05-15T04:39:59.984Z,1021.08
2019-05-15T04:40:59.787Z,1021.07
2019-05-15T04:41:59.746Z,1021.07
2019-05-15T04:42:59.730Z,1021.10
2019-05-15T04:43:59.894Z,1021.03
2019-05-15T04:44:59.810Z,1021.08
2019-05-15T04:46:03.088Z,1021.07
2019-05-15T04:46:59.783Z,1021.06
2019-05-15T04:47:59.665Z,1021.08
2019-05-15T04:48:59.756Z,1021.07
2019-05-15T04:49:59.543Z,1021.12
2019-05-15T04:50:59.524Z,1021.08
2019-05-15T04:52:03.331Z,1021.10
2019-05-15T04:52:59.485Z,1021.12
2019-05-15T04:53:59.417Z,1021.14
2019-05-15T04:54:59.887Z,1021.11
2019-05-15T04:55:59.905Z,1021.07
2019-05-15T04:56:59.502Z,1021.06
2019-05-15T04:57:59.420Z,1021.08
2019-05-15T04:59:00.169Z,1021.06
2019-05-15T04:59:59.219Z,1021.03
2019-05-15T05:01:00.107Z,1021.01
2019-05-15T05:02:16.400Z,1021.02
2019-05-15T05:02:59.135Z,1021.08
2019-05-15T05:03:59.198Z,1021.09
2019-05-15T05:04:59.057Z,1021.12
2019-05-15T05:06:05.836Z,1021.13
2019-05-15T05:06:59.006Z,1021.10
2019-05-15T05:08:09.278Z,1021.10
2019-05-15T05:08:59.715Z,1021.12
2019-05-15T05:09:59.965Z,1021.11
2019-05-15T05:10:59.392Z,1021.18
2019-05-15T05:12:00.897Z,1021.19
2019-05-15T05:12:59.175Z,1021.16
2019-05-15T05:14:20.913Z,1021.20
2019-05-15T05:14:58.851Z,1021.20
2019-05-15T05:15:58.930Z,1021.20
2019-05-15T05:17:13.385Z,1021.19
2019-05-15T05:17:58.741Z,1021.18
2019-05-15T05:19:05.331Z,1021.16
2019-05-15T05:19:58.597Z,1021.21
2019-05-15T05:20:58.680Z,1021.19
2019-05-15T05:21:58.615Z,1021.22
2019-05-15T05:22:59.628Z,1021.19
2019-05-15T05:23:58.668Z,1021.17
2019-05-15T05:24:58.575Z,1021.25
2019-05-15T05:25:58.513Z,1021.25
2019-05-15T05:27:15.425Z,1021.27
2019-05-15T05:27:58.364Z,1021.27
2019-05-15T05:29:01.389Z,1021.25
2019-05-15T05:29:58.676Z,1021.28
2019-05-15T05:30:59.390Z,1021.32
2019-05-15T05:31:58.564Z,1021.33
2019-05-15T05:33:08.321Z,1021.32
2019-05-15T05:33:58.211Z,1021.31
2019-05-15T05:35:08.208Z,1021.28
2019-05-15T05:35:58.503Z,1021.27
2019-05-15T05:36:58.866Z,1021.30
2019-05-15T05:37:58.372Z,1021.31
2019-05-15T05:39:09.202Z,1021.34
2019-05-15T05:39:58.006Z,1021.31
2019-05-15T05:41:00.054Z,1021.34
2019-05-15T05:41:58.767Z,1021.36
2019-05-15T05:43:04.881Z,1021.30
2019-05-15T05:43:58.690Z,1021.32
2019-05-15T05:44:59.991Z,1021.34
2019-05-15T05:45:58.289Z,1021.36
2019-05-15T05:47:04.445Z,1021.31
2019-05-15T05:47:58.085Z,1021.36
2019-05-15T05:48:58.306Z,1021.38
2019-05-15T05:49:58.193Z,1021.34
2019-05-15T05:51:19.185Z,1021.37
2019-05-15T05:51:58.759Z,1021.37
2019-05-15T05:52:57.971Z,1021.34
2019-05-15T05:53:58.968Z,1021.36
2019-05-15T05:54:58.090Z,1021.37
2019-05-15T05:55:58.052Z,1021.35
2019-05-15T05:57:05.402Z,1021.31
2019-05-15T05:57:58.399Z,1021.29
2019-05-15T05:58:59.568Z,1021.31
2019-05-15T05:59:58.324Z,1021.25
2019-05-15T06:00:58.588Z,1021.30
2019-05-15T06:01:59.010Z,1021.27
2019-05-15T06:02:59.133Z,1021.29
2019-05-15T06:03:58.331Z,1021.30
2019-05-15T06:04:58.244Z,1021.28
2019-05-15T06:05:59.011Z,1021.33
2019-05-15T06:07:07.121Z,1021.33
2019-05-15T06:07:58.188Z,1021.27
2019-05-15T06:08:58.414Z,1021.28
2019-05-15T06:09:58.092Z,1021.23
2019-05-15T06:10:58.550Z,1021.31
2019-05-15T06:11:58.302Z,1021.30
2019-05-15T06:12:58.723Z,1021.24
2019-05-15T06:13:58.478Z,1021.27
2019-05-15T06:14:58.088Z,1021.28
2019-05-15T06:15:59.044Z,1021.28
2019-05-15T06:16:58.883Z,1021.30
2019-05-15T06:17:58.551Z,1021.37
2019-05-15T06:18:58.620Z,1021.34
2019-05-15T06:19:58.616Z,1021.34
2019-05-15T06:20:58.601Z,1021.33
2019-05-15T06:22:00.708Z,1021.31
2019-05-15T06:22:58.032Z,1021.36
2019-05-15T06:24:03.657Z,1021.34
2019-05-15T06:24:57.905Z,1021.36
2019-05-15T06:25:59.019Z,1021.34
2019-05-15T06:26:58.586Z,1021.38
2019-05-15T06:27:58.366Z,1021.36
2019-05-15T06:28:58.413Z,1021.31
2019-05-15T06:29:57.989Z,1021.32
2019-05-15T06:31:00.349Z,1021.33
2019-05-15T06:31:58.661Z,1021.31
2019-05-15T06:33:05.708Z,1021.39
2019-05-15T06:33:58.087Z,1021.37
2019-05-15T06:34:57.795Z,1021.41
2019-05-15T06:35:59.059Z,1021.38
2019-05-15T06:36:58.717Z,1021.42
2019-05-15T06:37:58.941Z,1021.41
2019-05-15T06:38:56.234Z,1021.37
2019-05-15T06:39:56.324Z,1021.44
2019-05-15T06:40:58.305Z,1021.43
2019-05-15T06:41:56.135Z,1021.42
2019-05-15T06:42:59.352Z,1021.44
2019-05-15T06:43:56.105Z,1021.41
2019-05-15T06:44:56.147Z,1021.40
2019-05-15T06:45:58.271Z,1021.39
2019-05-15T06:46:58.567Z,1021.38
2019-05-15T06:47:57.927Z,1021.39
2019-05-15T06:48:57.940Z,1021.41
2019-05-15T06:49:57.872Z,1021.39
2019-05-15T06:50:57.985Z,1021.36
2019-05-15T06:51:58.020Z,1021.33
2019-05-15T06:52:55.918Z,1021.40
2019-05-15T06:53:58.180Z,1021.39
2019-05-15T06:54:55.838Z,1021.36
2019-05-15T06:55:55.759Z,1021.33
2019-05-15T06:56:58.187Z,1021.34
2019-05-15T06:57:58.244Z,1021.40
2019-05-15T06:58:57.722Z,1021.39
2019-05-15T06:59:57.756Z,1021.36
2019-05-15T07:00:55.985Z,1021.40
2019-05-15T07:01:55.592Z,1021.39
2019-05-15T07:02:58.107Z,1021.44
2019-05-15T07:03:55.511Z,1021.43
2019-05-15T07:04:55.601Z,1021.42
2019-05-15T07:05:55.454Z,1021.47
2019-05-15T07:06:55.534Z,1021.41
2019-05-15T07:07:55.396Z,1021.45
2019-05-15T07:08:55.477Z,1021.49
2019-05-15T07:09:55.372Z,1021.39
2019-05-15T07:10:57.726Z,1021.39
2019-05-15T07:11:55.470Z,1021.36
2019-05-15T07:12:55.370Z,1021.38
2019-05-15T07:13:55.206Z,1021.36
2019-05-15T07:14:55.327Z,1021.38
2019-05-15T07:15:55.142Z,1021.35
2019-05-15T07:16:55.294Z,1021.33
2019-05-15T07:17:55.112Z,1021.30
2019-05-15T07:18:55.113Z,1021.33
2019-05-15T07:19:55.046Z,1021.30
2019-05-15T07:20:55.061Z,1021.26
2019-05-15T07:21:55.048Z,1021.29
2019-05-15T07:22:58.447Z,1021.27
2019-05-15T07:23:54.974Z,1021.26
2019-05-15T07:24:58.185Z,1021.29
2019-05-15T07:25:54.917Z,1021.27
2019-05-15T07:26:54.851Z,1021.29
2019-05-15T07:27:54.824Z,1021.27
2019-05-15T07:28:54.852Z,1021.21
2019-05-15T07:29:54.710Z,1021.23
2019-05-15T07:30:54.777Z,1021.22
2019-05-15T07:31:54.708Z,1021.28
2019-05-15T07:32:54.668Z,1021.24
2019-05-15T07:33:54.583Z,1021.25
2019-05-15T07:34:54.595Z,1021.25
2019-05-15T07:35:54.522Z,1021.29
2019-05-15T07:36:54.620Z,1021.26
2019-05-15T07:37:54.476Z,1021.24
2019-05-15T07:38:54.503Z,1021.23
2019-05-15T07:39:54.393Z,1021.25
2019-05-15T07:41:00.060Z,1021.17
2019-05-15T07:41:54.370Z,1021.17
2019-05-15T07:42:54.312Z,1021.24
2019-05-15T07:43:54.304Z,1021.20
2019-05-15T07:44:54.277Z,1021.17
2019-05-15T07:45:55.734Z,1021.15
2019-05-15T07:46:54.241Z,1021.14
2019-05-15T07:47:54.296Z,1021.14
2019-05-15T07:48:54.135Z,1021.22
2019-05-15T07:49:54.258Z,1021.20
2019-05-15T07:50:54.092Z,1021.22
2019-05-15T07:51:54.049Z,1021.21
2019-05-15T07:52:54.034Z,1021.19
2019-05-15T07:53:53.990Z,1021.14
2019-05-15T07:54:53.941Z,1021.15
2019-05-15T07:55:53.905Z,1021.15
2019-05-15T07:56:53.895Z,1021.12
2019-05-15T07:57:53.856Z,1021.15
2019-05-15T07:58:53.948Z,1021.15
2019-05-15T07:59:53.802Z,1021.08
2019-05-15T08:00:53.840Z,1021.14
2019-05-15T08:01:53.762Z,1021.12
2019-05-15T08:02:53.756Z,1021.09
2019-05-15T08:04:01.700Z,1021.05
2019-05-15T08:04:53.655Z,1021.05
2019-05-15T08:05:59.287Z,1021.08
2019-05-15T08:06:53.589Z,1021.02
2019-05-15T08:07:53.598Z,1021.02
2019-05-15T08:08:53.549Z,1021.04
2019-05-15T08:09:53.597Z,1021.09
2019-05-15T08:10:53.457Z,1021.02
2019-05-15T08:11:53.528Z,1021.02
2019-05-15T08:12:53.406Z,1021.04
2019-05-15T08:13:53.417Z,1020.97
2019-05-15T08:14:53.353Z,1021.01
2019-05-15T08:15:53.303Z,1021.01
2019-05-15T08:16:53.277Z,1021.04
2019-05-15T08:18:08.165Z,1021.02
2019-05-15T08:18:53.201Z,1021.00
2019-05-15T08:19:53.185Z,1021.04
2019-05-15T08:20:53.148Z,1020.97
2019-05-15T08:21:53.340Z,1020.94
2019-05-15T08:22:53.114Z,1020.97
2019-05-15T08:23:53.077Z,1020.94
2019-05-15T08:24:53.043Z,1020.98
2019-05-15T08:25:53.094Z,1020.95
2019-05-15T08:26:52.952Z,1020.88
2019-05-15T08:27:54.045Z,1020.94
2019-05-15T08:28:52.897Z,1020.87
2019-05-15T08:29:52.918Z,1020.88
2019-05-15T08:30:52.847Z,1020.88
2019-05-15T08:31:52.934Z,1020.90
2019-05-15T08:32:52.797Z,1020.82
2019-05-15T08:33:52.749Z,1020.80
2019-05-15T08:34:52.719Z,1020.80
2019-05-15T08:35:52.693Z,1020.83
2019-05-15T08:36:52.684Z,1020.81
2019-05-15T08:37:52.649Z,1020.75
2019-05-15T08:38:52.599Z,1020.73
2019-05-15T08:39:52.689Z,1020.74
2019-05-15T08:40:52.563Z,1020.75
2019-05-15T08:41:52.613Z,1020.79
2019-05-15T08:42:56.663Z,1020.81
2019-05-15T08:43:52.446Z,1020.79
2019-05-15T08:44:52.404Z,1020.83
2019-05-15T08:45:52.390Z,1020.71
2019-05-15T08:46:52.350Z,1020.71
2019-05-15T08:47:52.332Z,1020.62
2019-05-15T08:48:52.286Z,1020.69
2019-05-15T08:49:52.272Z,1020.63
2019-05-15T08:50:52.248Z,1020.65
2019-05-15T08:51:52.257Z,1020.58
2019-05-15T08:52:52.175Z,1020.60
2019-05-15T08:53:53.198Z,1020.62
2019-05-15T08:54:52.138Z,1020.66
2019-05-15T08:55:53.856Z,1020.64
2019-05-15T08:56:52.110Z,1020.59
2019-05-15T08:57:55.640Z,1020.60
2019-05-15T08:58:52.018Z,1020.68
2019-05-15T08:59:51.956Z,1020.66
2019-05-15T09:00:54.036Z,1020.68
2019-05-15T09:01:51.909Z,1020.65
2019-05-15T10:29:14.189Z,1019.73
2019-05-15T10:30:13.929Z,1019.76
2019-05-15T10:31:28.688Z,1019.75
2019-05-15T10:32:13.865Z,1019.77
2019-05-15T10:33:13.955Z,1019.84
2019-05-15T10:34:13.801Z,1019.74
2019-05-15T10:35:28.182Z,1019.75
2019-05-15T10:36:13.743Z,1019.68
2019-05-15T10:37:29.754Z,1019.64
2019-05-15T10:38:13.717Z,1019.60
2019-05-15T10:39:29.755Z,1019.61
2019-05-15T10:40:13.631Z,1019.61
2019-05-15T10:41:28.749Z,1019.58
2019-05-15T10:42:13.569Z,1019.59
2019-05-15T10:43:13.709Z,1019.52
2019-05-15T10:44:13.513Z,1019.56
2019-05-15T10:46:13.840Z,1019.48
2019-05-15T10:47:28.906Z,1019.47
2019-05-15T10:48:13.406Z,1019.46
2019-05-15T10:50:13.351Z,1019.46
2019-05-15T10:51:28.735Z,1019.41
2019-05-15T10:52:13.313Z,1019.47
2019-05-15T10:53:15.343Z,1019.48
2019-05-15T10:54:13.228Z,1019.48
2019-05-15T10:55:21.179Z,1019.42
2019-05-15T10:56:13.169Z,1019.38
2019-05-15T10:57:22.118Z,1019.38
2019-05-15T10:58:17.470Z,1019.33
2019-05-15T10:59:49.766Z,1019.36
2019-05-15T11:00:13.055Z,1019.50
2019-05-15T11:02:12.992Z,1019.35
2019-05-15T11:03:15.219Z,1019.39
2019-05-15T11:04:12.934Z,1019.41
2019-05-15T11:05:21.697Z,1019.33
2019-05-15T11:06:12.890Z,1019.28
2019-05-15T11:07:12.961Z,1019.29
2019-05-15T11:08:12.821Z,1019.31
2019-05-15T11:09:12.869Z,1019.24
2019-05-15T11:10:12.765Z,1019.25
2019-05-15T11:11:20.675Z,1019.21
2019-05-15T11:12:12.702Z,1019.25
2019-05-15T11:13:12.712Z,1019.28
2019-05-15T11:14:12.650Z,1019.24
2019-05-15T11:15:12.703Z,1019.19
2019-05-15T11:16:12.592Z,1019.21
2019-05-15T11:17:12.626Z,1019.24
2019-05-15T11:18:12.735Z,1019.27
2019-05-15T11:19:13.549Z,1019.30
2019-05-15T11:20:12.579Z,1019.15
2019-05-15T11:21:12.545Z,1019.13
2019-05-15T11:22:12.429Z,1019.04
2019-05-15T11:23:13.481Z,1019.12
2019-05-15T11:24:12.377Z,1019.08
2019-05-15T11:25:12.370Z,1019.08
2019-05-15T11:26:12.315Z,1019.05
2019-05-15T11:27:12.282Z,1019.03
2019-05-15T11:28:12.249Z,1019.01
2019-05-15T11:29:12.292Z,1019.03
2019-05-15T11:30:12.216Z,1019.00
2019-05-15T11:31:12.172Z,1018.97
2019-05-15T11:32:12.210Z,1018.99
2019-05-15T11:33:12.108Z,1019.01
2019-05-15T11:34:12.079Z,1019.00
2019-05-15T11:35:12.057Z,1019.00
2019-05-15T11:36:12.028Z,1019.05
2019-05-15T11:37:12.043Z,1019.01
2019-05-15T11:38:11.989Z,1018.93
2019-05-15T11:39:12.031Z,1018.89
2019-05-15T11:40:11.926Z,1018.95
2019-05-15T11:41:11.970Z,1018.88
2019-05-15T11:42:11.898Z,1018.88
2019-05-15T11:43:11.843Z,1018.76
2019-05-15T11:44:11.815Z,1018.72
2019-05-15T11:45:11.780Z,1018.81
2019-05-15T11:46:11.739Z,1018.94
2019-05-15T11:47:11.720Z,1018.84
2019-05-15T11:48:11.680Z,1018.88
2019-05-15T11:49:11.666Z,1018.85
2019-05-15T11:50:11.650Z,1018.85
2019-05-15T11:51:11.635Z,1018.82
2019-05-15T11:52:11.598Z,1018.81
2019-05-15T11:53:11.564Z,1018.74
2019-05-15T11:54:11.667Z,1018.82
2019-05-15T11:55:11.513Z,1018.77
2019-05-15T11:56:11.563Z,1018.83
2019-05-15T11:57:11.453Z,1018.74
2019-05-15T11:58:11.436Z,1018.75
2019-05-15T11:59:11.424Z,1018.81
2019-05-15T12:00:16.045Z,1018.75
2019-05-15T12:01:11.330Z,1018.76
2019-05-15T12:02:11.342Z,1018.82
2019-05-15T12:03:11.277Z,1018.72
2019-05-15T12:04:25.404Z,1018.75
2019-05-15T12:05:11.224Z,1018.68
2019-05-15T12:06:18.671Z,1018.89
2019-05-15T12:07:11.177Z,1018.63
2019-05-15T12:08:12.615Z,1018.61
2019-05-15T12:09:11.096Z,1018.72
2019-05-15T12:10:11.219Z,1018.65
2019-05-15T12:11:26.903Z,1018.61
2019-05-15T12:12:11.020Z,1018.53
2019-05-15T12:13:10.983Z,1018.59
2019-05-15T12:14:10.974Z,1018.60
2019-05-15T12:15:10.953Z,1018.58
2019-05-15T12:16:10.937Z,1018.65
2019-05-15T12:18:10.842Z,1018.61
2019-05-15T12:19:17.017Z,1018.56
2019-05-15T12:20:11.110Z,1018.65
2019-05-15T12:21:10.828Z,1018.66
2019-05-15T12:22:10.731Z,1018.62
2019-05-15T12:23:10.769Z,1018.61
2019-05-15T12:24:10.708Z,1018.58
2019-05-15T12:25:10.697Z,1018.55
2019-05-15T12:26:10.746Z,1018.54
2019-05-15T12:28:10.681Z,1018.45
2019-05-15T12:29:10.554Z,1018.54
2019-05-15T12:30:10.553Z,1018.57
2019-05-15T12:31:10.591Z,1018.61
2019-05-15T12:32:23.528Z,1018.57
2019-05-15T12:33:10.435Z,1018.54
2019-05-15T12:34:10.472Z,1018.48
2019-05-15T12:35:10.485Z,1018.53
2019-05-15T12:36:11.069Z,1018.54
2019-05-15T12:37:10.336Z,1018.53
2019-05-15T12:38:10.517Z,1018.63
2019-05-15T12:39:13.647Z,1018.50
2019-05-15T13:00:10.596Z,1018.42
2019-05-15T13:01:16.915Z,1018.32
2019-05-15T13:02:09.657Z,1018.41
2019-05-15T13:03:09.772Z,1018.50
2019-05-15T13:04:09.619Z,1018.37
2019-05-15T13:05:09.652Z,1018.35
2019-05-15T13:06:09.537Z,1018.39
2019-05-15T13:07:13.822Z,1018.31
2019-05-15T13:08:09.479Z,1018.28
2019-05-15T13:09:09.619Z,1018.26
2019-05-15T13:10:09.442Z,1018.36
2019-05-15T13:11:14.760Z,1018.21
2019-05-15T13:12:09.409Z,1018.33
2019-05-15T13:13:10.054Z,1018.35
2019-05-15T13:14:09.331Z,1018.36
2019-05-15T13:15:09.453Z,1018.34
2019-05-15T13:16:09.279Z,1018.31
2019-05-15T13:17:09.384Z,1018.30
2019-05-15T13:18:13.869Z,1018.26
2019-05-15T13:19:09.261Z,1018.30
2019-05-15T13:20:09.157Z,1018.27
2019-05-15T13:21:09.213Z,1018.31
2019-05-15T13:22:17.639Z,1018.26
2019-05-15T13:23:09.073Z,1018.23
2019-05-15T13:24:10.122Z,1018.25
2019-05-15T13:25:09.011Z,1018.18
2019-05-15T13:26:23.027Z,1018.24
2019-05-15T13:27:08.965Z,1018.17
2019-05-15T13:28:09.244Z,1018.22
2019-05-15T13:29:09.140Z,1018.26
2019-05-15T13:30:09.259Z,1018.24
2019-05-15T13:31:09.288Z,1018.12
2019-05-15T13:32:08.951Z,1018.07
2019-05-15T13:33:09.857Z,1018.12
2019-05-15T13:34:08.854Z,1018.14
2019-05-15T13:35:10.030Z,1018.06
2019-05-15T13:36:09.124Z,1018.07
2019-05-15T13:37:08.970Z,1018.07
2019-05-15T13:38:09.931Z,1018.07
2019-05-15T13:39:08.609Z,1018.05
2019-05-15T13:40:08.694Z,1018.07
2019-05-15T13:41:09.484Z,1018.07
2019-05-15T13:42:09.591Z,1018.05
2019-05-15T13:43:08.708Z,1018.00
2019-05-15T13:44:09.109Z,1018.00
2019-05-15T13:45:13.232Z,1018.02
2019-05-15T13:46:08.908Z,1017.99
2019-05-15T13:47:08.769Z,1018.00
2019-05-15T13:48:09.096Z,1018.03
2019-05-15T13:49:08.496Z,1018.05
2019-05-15T13:50:08.394Z,1018.04
2019-05-15T13:51:08.249Z,1017.97
2019-05-15T13:52:08.595Z,1017.98
2019-05-15T13:53:10.759Z,1017.96
2019-05-15T13:54:08.838Z,1018.02
2019-05-15T13:55:08.550Z,1017.99
2019-05-15T13:56:08.219Z,1018.00